Time;durP1;ratioP1;P1;durP2;ratioP2;P2;SDS_P1;SDS_P2;PMS_P1;PMS_P2;Temp;Humidity;BMP_temperature;BMP_pressure;BME280_temperature;BME280_humidity;BME280_pressure;Samples;Min_cycle;Max_cycle;Signal;HPM_P1;HPM_P2
2022/05/06 00:01:38;;;;;;;44.00;39.80;;;;;;;10.60;100.00;99372.23;104815;1277;69222;-75
2022/05/06 00:04:06;;;;;;;47.50;42.60;;;;;;;10.62;100.00;99373.21;104787;1276;73137;-77
2022/05/06 00:06:33;;;;;;;45.80;40.90;;;;;;;10.63;100.00;99373.13;104883;1276;60509;-75
2022/05/06 00:08:59;;;;;;;42.20;38.10;;;;;;;10.63;100.00;99373.33;104826;1277;61781;-75
2022/05/06 00:11:26;;;;;;;54.60;48.70;;;;;;;10.61;100.00;99382.53;104793;1277;75427;-75
2022/05/06 00:13:52;;;;;;;58.10;51.70;;;;;;;10.57;100.00;99384.68;104794;1277;68659;-76
2022/05/06 00:16:20;;;;;;;65.10;58.30;;;;;;;10.55;100.00;99387.27;104805;1277;60479;-74
2022/05/06 00:18:47;;;;;;;65.70;57.70;;;;;;;10.56;100.00;99384.02;104783;1276;60513;-75
2022/05/06 00:21:14;;;;;;;66.40;58.50;;;;;;;10.57;100.00;99385.59;104820;1277;61654;-75
2022/05/06 00:23:41;;;;;;;60.60;54.10;;;;;;;10.58;100.00;99389.44;104813;1277;74269;-75
2022/05/06 00:26:09;;;;;;;57.60;51.40;;;;;;;10.59;100.00;99389.05;104839;1277;70570;-75
2022/05/06 00:28:36;;;;;;;55.70;49.70;;;;;;;10.60;100.00;99385.98;104795;1277;72191;-76
2022/05/06 00:31:04;;;;;;;55.80;49.90;;;;;;;10.60;100.00;99383.29;104517;1277;60604;-77
2022/05/06 00:33:31;;;;;;;58.80;52.60;;;;;;;10.61;100.00;99378.77;104577;1277;60985;-77
2022/05/06 00:35:59;;;;;;;55.00;49.40;;;;;;;10.63;100.00;99382.36;104564;1277;74910;-75
2022/05/06 00:38:26;;;;;;;56.20;50.20;;;;;;;10.65;100.00;99385.42;104546;1277;69398;-75
2022/05/06 00:40:53;;;;;;;56.60;50.80;;;;;;;10.68;100.00;99385.25;104511;1277;73165;-76
2022/05/06 00:43:21;;;;;;;57.20;51.20;;;;;;;10.71;100.00;99380.45;104648;1277;60537;-75
2022/05/06 00:45:52;;;;;;;56.80;50.90;;;;;;;10.73;100.00;99383.91;104561;1277;60917;-75
2022/05/06 00:48:24;;;;;;;55.50;49.60;;;;;;;10.75;100.00;99386.77;104514;1277;75483;-77
2022/05/06 00:50:52;;;;;;;51.40;46.20;;;;;;;10.77;100.00;99384.38;104626;1277;69255;-75
2022/05/06 00:53:19;;;;;;;53.20;47.60;;;;;;;10.79;100.00;99384.95;104553;1277;73311;-72
2022/05/06 00:55:47;;;;;;;56.70;50.90;;;;;;;10.82;100.00;99384.96;104445;1277;60552;-74
2022/05/06 00:58:15;;;;;;;56.30;50.80;;;;;;;10.84;100.00;99382.83;104497;1277;60946;-78
2022/05/06 01:00:41;;;;;;;52.60;47.00;;;;;;;10.87;100.00;99383.38;104730;1277;74644;-75
2022/05/06 01:03:08;;;;;;;51.60;46.50;;;;;;;10.86;100.00;99387.19;104478;1277;60505;-75
2022/05/06 01:05:34;;;;;;;49.50;44.40;;;;;;;10.83;100.00;99383.97;104535;1277;73315;-75
2022/05/06 01:08:02;;;;;;;47.30;42.50;;;;;;;10.79;100.00;99391.16;104549;1277;60899;-76
2022/05/06 01:10:28;;;;;;;49.70;44.60;;;;;;;10.73;100.00;99387.60;104613;1277;60833;-77
2022/05/06 01:12:55;;;;;;;48.90;44.00;;;;;;;10.69;100.00;99389.11;104595;1277;60597;-75
2022/05/06 01:15:27;;;;;;;58.00;52.10;;;;;;;10.63;100.00;99390.35;104721;1277;60488;-76
2022/05/06 01:17:56;;;;;;;66.50;59.80;;;;;;;10.63;100.00;99389.70;104738;1277;73332;-75
2022/05/06 01:20:24;;;;;;;59.80;53.70;;;;;;;10.61;100.00;99389.45;104693;1277;60458;-77
2022/05/06 01:22:59;;;;;;;58.40;52.30;;;;;;;10.56;100.00;99394.48;104595;1277;61280;-74
2022/05/06 01:25:27;;;;;;;53.90;48.30;;;;;;;10.52;100.00;99393.87;104491;1277;74631;-76
2022/05/06 01:27:55;;;;;;;50.10;45.20;;;;;;;10.48;100.00;99397.82;104550;1277;69520;-75
2022/05/06 01:30:29;;;;;;;51.20;46.20;;;;;;;10.43;100.00;99401.15;104610;1276;74124;-76
2022/05/06 01:32:57;;;;;;;58.80;52.90;;;;;;;10.37;100.00;99400.98;104825;1277;60443;-75
2022/05/06 01:35:26;;;;;;;53.70;48.50;;;;;;;10.34;100.00;99403.10;104782;1276;61805;-76
2022/05/06 01:37:56;;;;;;;46.10;41.30;;;;;;;10.31;100.00;99411.27;104843;1277;74512;-76
2022/05/06 01:40:24;;;;;;;46.90;42.00;;;;;;;10.28;100.00;99419.83;104842;1277;69251;-75
2022/05/06 01:42:56;;;;;;;47.60;42.90;;;;;;;10.26;100.00;99421.82;104520;1277;74602;-76
2022/05/06 01:45:24;;;;;;;48.90;43.90;;;;;;;10.26;100.00;99415.64;104789;1276;61153;-76
2022/05/06 01:47:52;;;;;;;48.90;43.80;;;;;;;10.26;100.00;99418.30;104882;1277;60874;-75
2022/05/06 01:50:23;;;;;;;46.90;42.40;;;;;;;10.26;100.00;99415.30;104790;1277;74273;-75
2022/05/06 01:52:51;;;;;;;49.60;44.40;;;;;;;10.25;100.00;99412.86;104803;1277;67320;-76
2022/05/06 01:55:18;;;;;;;49.40;44.40;;;;;;;10.26;100.00;99410.86;104829;1277;73238;-75
2022/05/06 01:57:45;;;;;;;64.70;58.10;;;;;;;10.28;100.00;99407.20;104801;1277;61277;-75
2022/05/06 02:00:36;;;;;;;60.20;53.80;;;;;;;10.29;100.00;99409.45;104497;1277;61171;-77
2022/05/06 02:03:04;;;;;;;60.40;54.00;;;;;;;10.30;100.00;99407.63;104811;1277;74529;-75
2022/05/06 02:05:31;;;;;;;64.20;57.60;;;;;;;10.30;100.00;99411.54;104824;1277;70288;-77
2022/05/06 02:07:57;;;;;;;60.40;54.10;;;;;;;10.31;100.00;99411.49;104833;1275;74460;-76
2022/05/06 02:10:27;;;;;;;58.60;52.50;;;;;;;10.29;100.00;99413.33;104702;1277;60484;-75
2022/05/06 02:12:54;;;;;;;56.90;51.10;;;;;;;10.29;100.00;99416.00;104832;1277;60758;-75
2022/05/06 02:15:20;;;;;;;55.60;49.90;;;;;;;10.30;100.00;99420.02;104793;1276;60485;-75
2022/05/06 02:17:47;;;;;;;55.90;50.10;;;;;;;10.32;100.00;99425.09;104811;1277;60560;-76
2022/05/06 02:20:13;;;;;;;59.60;52.90;;;;;;;10.32;100.00;99431.64;104825;1277;60591;-75
2022/05/06 02:22:43;;;;;;;67.80;57.60;;;;;;;10.35;100.00;99433.79;104821;1277;60580;-75
2022/05/06 02:25:10;;;;;;;;;;;;;;;10.39;100.00;99439.92;104834;1275;61004;-76
2022/05/06 02:27:37;;;;;;;66.80;56.80;;;;;;;10.43;100.00;99446.63;104816;1277;60481;-75
2022/05/06 02:35:37;;;;;;;64.80;56.90;;;;;;;10.56;100.00;99451.03;104801;1276;61164;-75
2022/05/06 02:38:05;;;;;;;66.50;55.70;;;;;;;10.55;100.00;99446.61;104504;1277;60975;-76
2022/05/06 02:40:36;;;;;;;64.10;56.20;;;;;;;10.55;100.00;99447.66;104828;1277;75044;-75
2022/05/06 02:43:05;;;;;;;62.30;55.30;;;;;;;10.57;100.00;99454.89;104442;1277;68634;-74
2022/05/06 02:45:32;;;;;;;63.10;55.70;;;;;;;10.58;100.00;99450.03;105015;1271;73250;-75
2022/05/06 02:48:00;;;;;;;64.40;57.20;;;;;;;10.59;100.00;99441.96;105051;1271;60580;-76
2022/05/06 02:50:26;;;;;;;65.50;57.90;;;;;;;10.61;100.00;99440.80;105076;1271;60745;-76
2022/05/06 02:52:53;;;;;;;67.00;59.00;;;;;;;10.62;100.00;99445.85;105077;1271;75450;-77
2022/05/06 02:55:22;;;;;;;66.00;58.80;;;;;;;10.64;100.00;99442.21;105072;1271;60470;-75
2022/05/06 02:57:48;;;;;;;69.80;59.20;;;;;;;10.66;100.00;99446.14;105099;1271;73657;-76
2022/05/06 03:00:15;;;;;;;69.60;61.10;;;;;;;10.69;100.00;99440.83;104949;1271;60832;-78
2022/05/06 03:02:42;;;;;;;65.70;58.30;;;;;;;10.71;100.00;99437.68;105003;1271;62062;-75
2022/05/06 03:05:10;;;;;;;76.10;67.80;;;;;;;10.72;100.00;99441.16;105036;1271;74333;-75
2022/05/06 03:07:37;;;;;;;65.50;58.40;;;;;;;10.72;100.00;99439.02;104836;1271;69254;-75
2022/05/06 03:10:04;;;;;;;68.30;60.20;;;;;;;10.73;100.00;99440.04;105013;1271;74709;-77
2022/05/06 03:12:31;;;;;;;75.40;66.00;;;;;;;10.74;100.00;99438.58;105022;1271;61537;-76
2022/05/06 03:15:04;;;;;;;81.10;68.80;;;;;;;10.77;100.00;99436.08;105043;1271;61944;-76
2022/05/06 03:17:34;;;;;;;75.30;63.20;;;;;;;10.82;100.00;99433.85;105033;1271;74630;-75
2022/05/06 03:20:04;;;;;;;74.60;62.50;;;;;;;10.86;100.00;99432.34;105042;1271;67870;-75
2022/05/06 03:22:37;;;;;;;75.80;65.30;;;;;;;10.89;100.00;99431.08;104826;1274;73458;-75
2022/05/06 03:25:04;;;;;;;71.80;60.20;;;;;;;10.93;100.00;99435.66;104862;1274;60614;-77
2022/05/06 03:30:16;;;;;;;65.80;58.40;;;;;;;10.94;100.00;99433.60;104839;1274;74590;-75
2022/05/06 03:32:43;;;;;;;68.10;60.10;;;;;;;10.93;100.00;99430.84;104848;1274;69264;-76
2022/05/06 03:35:09;;;;;;;71.40;63.30;;;;;;;10.92;100.00;99428.39;104791;1274;60571;-76
2022/05/06 03:37:38;;;;;;;73.30;62.70;;;;;;;10.92;100.00;99429.44;104787;1274;60481;-75
2022/05/06 03:40:06;;;;;;;69.80;59.20;;;;;;;10.94;100.00;99430.73;104795;1274;61188;-76
2022/05/06 03:42:32;;;;;;;71.20;60.40;;;;;;;10.96;100.00;99429.54;104783;1274;73801;-76
2022/05/06 03:44:59;;;;;;;72.50;62.70;;;;;;;10.99;100.00;99429.05;104822;1274;68679;-75
2022/05/06 03:47:26;;;;;;;66.60;59.30;;;;;;;11.02;100.00;99427.08;104776;1274;71265;-76
2022/05/06 03:52:38;;;;;;;67.50;58.60;;;;;;;11.07;100.00;99433.54;104794;1274;60583;-77
2022/05/06 03:55:06;;;;;;;68.20;60.90;;;;;;;11.08;100.00;99432.19;105070;1271;74491;-79
2022/05/06 03:57:32;;;;;;;69.50;59.50;;;;;;;11.13;100.00;99431.02;105145;1271;69427;-78
2022/05/06 03:59:59;;;;;;;74.70;62.80;;;;;;;11.19;100.00;99433.10;105085;1271;73207;-76
2022/05/06 04:02:25;;;;;;;71.60;63.70;;;;;;;11.26;100.00;99435.56;105063;1271;60514;-77
2022/05/06 04:04:52;;;;;;;68.70;59.90;;;;;;;11.33;100.00;99438.48;104807;1271;60398;-79
2022/05/06 04:07:18;;;;;;;73.40;63.30;;;;;;;11.40;100.00;99441.58;105089;1271;60453;-78
2022/05/06 04:09:45;;;;;;;71.60;63.80;;;;;;;11.47;100.00;99445.24;104869;1271;69192;-79
2022/05/06 04:12:11;;;;;;;70.20;63.00;;;;;;;11.52;100.00;99446.02;105062;1271;60557;-77
2022/05/06 04:14:38;;;;;;;69.30;61.90;;;;;;;11.59;100.00;99450.71;104903;1272;60663;-76
2022/05/06 04:17:04;;;;;;;72.50;64.80;;;;;;;11.69;100.00;99451.17;105072;1271;60475;-76
2022/05/06 04:19:31;;;;;;;69.00;61.60;;;;;;;11.76;100.00;99457.98;104993;1271;60546;-77
2022/05/06 04:24:42;;;;;;;63.20;56.30;;;;;;;11.91;100.00;99459.20;105090;1271;72312;-75
2022/05/06 04:27:09;;;;;;;69.40;56.30;;;;;;;11.99;100.00;99457.24;105094;1271;60580;-77
2022/05/06 04:29:35;;;;;;;62.30;54.50;;;;;;;12.07;100.00;99462.40;105086;1271;60487;-77
2022/05/06 04:32:02;;;;;;;68.70;55.30;;;;;;;12.15;100.00;99467.62;105109;1271;60575;-76
2022/05/06 04:34:28;;;;;;;66.20;53.80;;;;;;;12.21;100.00;99466.16;105036;1270;69550;-76
2022/05/06 04:36:55;;;;;;;65.90;51.70;;;;;;;12.28;100.00;99467.65;104842;1271;60577;-75
2022/05/06 04:39:21;;;;;;;61.40;50.50;;;;;;;12.39;100.00;99464.27;105063;1271;60385;-77
2022/05/06 04:41:49;;;;;;;64.20;49.40;;;;;;;12.48;100.00;99466.52;104825;1272;60506;-76
2022/05/06 04:44:16;;;;;;;62.20;48.80;;;;;;;12.56;100.00;99465.95;105091;1271;75975;-75
2022/05/06 04:46:42;;;;;;;61.80;49.60;;;;;;;12.64;100.00;99466.09;105099;1271;60564;-77
2022/05/06 04:49:09;;;;;;;59.30;49.60;;;;;;;12.71;100.00;99463.85;104862;1271;60595;-79
2022/05/06 04:51:36;;;;;;;57.80;48.00;;;;;;;12.76;100.00;99462.84;105068;1271;61605;-75
2022/05/06 04:54:02;;;;;;;60.00;49.30;;;;;;;12.79;100.00;99459.96;105067;1271;60350;-78
2022/05/06 04:56:29;;;;;;;60.90;47.70;;;;;;;12.82;100.00;99460.82;105069;1271;60587;-76
2022/05/06 04:58:55;;;;;;;58.00;47.00;;;;;;;12.83;100.00;99460.54;105100;1271;60433;-75
2022/05/06 05:01:22;;;;;;;66.10;51.70;;;;;;;12.86;100.00;99462.61;105096;1271;72880;-76
2022/05/06 05:03:48;;;;;;;65.90;49.90;;;;;;;12.89;100.00;99463.86;105067;1271;60617;-78
2022/05/06 05:06:15;;;;;;;65.00;50.00;;;;;;;12.90;100.00;99460.78;105074;1271;60472;-77
2022/05/06 05:08:41;;;;;;;64.10;49.30;;;;;;;12.91;100.00;99467.84;105098;1271;60555;-78
2022/05/06 05:11:08;;;;;;;63.70;48.30;;;;;;;12.95;100.00;99469.33;105077;1271;60530;-76
2022/05/06 05:13:38;;;;;;;69.00;48.80;;;;;;;12.99;100.00;99471.17;105067;1271;72625;-75
2022/05/06 05:16:05;;;;;;;70.80;50.80;;;;;;;13.00;100.00;99476.81;105080;1271;60637;-77
2022/05/06 05:18:31;;;;;;;72.10;53.40;;;;;;;13.00;100.00;99480.24;105057;1271;61202;-77
2022/05/06 05:20:58;;;;;;;63.00;46.30;;;;;;;13.03;100.00;99478.59;105062;1271;74719;-77
2022/05/06 05:23:25;;;;;;;70.30;50.80;;;;;;;13.06;100.00;99482.32;105098;1271;60383;-76
2022/05/06 05:25:51;;;;;;;74.50;51.00;;;;;;;13.11;100.00;99489.48;105035;1271;73567;-77
2022/05/06 05:28:18;;;;;;;72.70;49.90;;;;;;;13.13;100.00;99488.44;105078;1271;60564;-78
2022/05/06 05:30:44;;;;;;;68.30;49.00;;;;;;;13.15;100.00;99492.41;105078;1271;60383;-77
2022/05/06 05:33:11;;;;;;;68.40;48.60;;;;;;;13.15;100.00;99493.98;105046;1271;74391;-77
2022/05/06 05:35:38;;;;;;;69.40;49.10;;;;;;;13.14;100.00;99498.17;105072;1271;60481;-76
2022/05/06 05:38:05;;;;;;;67.40;48.70;;;;;;;13.12;100.00;99497.54;104824;1274;70403;-76
2022/05/06 05:40:31;;;;;;;70.30;50.20;;;;;;;13.13;100.00;99496.06;105044;1271;60519;-75
2022/05/06 05:42:58;;;;;;;67.70;49.80;;;;;;;13.19;100.00;99495.30;104858;1271;60374;-76
2022/05/06 05:48:21;;;;;;;74.40;51.20;;;;;;;13.32;100.00;99504.96;105076;1271;68613;-77
2022/05/06 05:50:49;;;;;;;68.70;48.70;;;;;;;13.36;100.00;99502.71;105048;1271;74385;-77
2022/05/06 05:53:15;;;;;;;68.30;49.40;;;;;;;13.41;100.00;99502.73;105067;1271;60510;-76
2022/05/06 05:55:42;;;;;;;73.80;51.80;;;;;;;13.43;100.00;99505.48;105065;1271;60479;-76
2022/05/06 05:58:08;;;;;;;73.40;51.20;;;;;;;13.44;100.00;99504.73;105068;1271;60462;-75
2022/05/06 06:00:36;;;;;;;72.50;49.70;;;;;;;13.45;100.00;99505.52;105111;1271;60657;-76
2022/05/06 06:03:03;;;;;;;73.90;50.60;;;;;;;13.50;100.00;99508.19;105050;1271;73382;-76
2022/05/06 06:05:29;;;;;;;77.80;50.00;;;;;;;13.56;100.00;99509.52;105064;1271;61358;-76
2022/05/06 06:07:55;;;;;;;75.20;50.30;;;;;;;13.60;100.00;99509.41;105092;1271;60382;-76
2022/05/06 06:10:22;;;;;;;70.80;46.50;;;;;;;13.58;100.00;99512.39;104858;1271;60449;-75
2022/05/06 06:12:48;;;;;;;70.20;47.50;;;;;;;13.62;100.00;99515.56;105067;1271;60472;-77
2022/05/06 06:15:15;;;;;;;65.90;45.60;;;;;;;13.73;100.00;99514.54;104893;1272;60476;-76
2022/05/06 06:17:42;;;;;;;69.60;47.60;;;;;;;13.85;100.00;99517.79;105027;1271;60577;-75
2022/05/06 06:20:10;;;;;;;66.30;47.90;;;;;;;13.96;100.00;99517.19;105065;1271;60770;-75
2022/05/06 06:22:36;;;;;;;59.20;45.60;;;;;;;14.03;100.00;99517.89;105087;1271;72041;-75
2022/05/06 06:25:03;;;;;;;62.10;46.70;;;;;;;14.07;100.00;99520.73;105102;1271;60478;-77
2022/05/06 06:27:31;;;;;;;63.30;46.90;;;;;;;14.08;100.00;99522.80;105071;1271;73239;-75
2022/05/06 06:29:58;;;;;;;61.10;45.40;;;;;;;14.11;100.00;99523.96;105076;1271;61269;-77
2022/05/06 06:32:25;;;;;;;58.20;45.80;;;;;;;14.14;100.00;99526.98;105033;1271;60958;-75
2022/05/06 06:34:52;;;;;;;61.50;47.30;;;;;;;14.18;100.00;99529.88;105047;1271;74603;-77
2022/05/06 06:37:20;;;;;;;55.60;44.70;;;;;;;14.27;100.00;99532.81;104970;1271;69209;-76
2022/05/06 06:39:47;;;;;;;60.90;46.00;;;;;;;14.33;100.00;99532.58;105087;1271;73509;-76
2022/05/06 06:42:14;;;;;;;55.20;44.80;;;;;;;14.35;100.00;99535.29;105089;1271;60602;-76
2022/05/06 06:44:40;;;;;;;56.80;45.50;;;;;;;14.35;100.00;99531.66;105067;1271;60876;-76
2022/05/06 06:47:11;;;;;;;60.40;47.10;;;;;;;14.34;100.00;99530.73;105019;1271;60415;-77
2022/05/06 06:49:37;;;;;;;59.30;47.40;;;;;;;14.34;100.00;99527.61;105052;1271;70646;-76
2022/05/06 06:52:04;;;;;;;59.00;47.30;;;;;;;14.38;100.00;99529.67;104844;1271;60484;-75
2022/05/06 06:54:31;;;;;;;58.40;47.80;;;;;;;14.41;100.00;99529.30;105067;1271;61111;-76
2022/05/06 06:56:58;;;;;;;55.20;46.50;;;;;;;14.43;100.00;99529.80;105109;1271;61290;-77
2022/05/06 06:59:25;;;;;;;62.40;49.50;;;;;;;14.54;100.00;99529.02;104838;1271;74771;-75
2022/05/06 07:01:52;;;;;;;61.30;50.00;;;;;;;14.67;100.00;99527.84;105065;1271;69186;-77
2022/05/06 07:04:18;;;;;;;55.90;46.50;;;;;;;14.80;100.00;99527.65;104864;1271;60510;-75
2022/05/06 07:12:15;;;;;;;57.70;47.00;;;;;;;14.75;100.00;99534.27;104927;1271;74315;-75
2022/05/06 07:14:41;;;;;;;57.80;48.60;;;;;;;14.60;100.00;99538.08;105069;1271;60500;-75
2022/05/06 07:17:08;;;;;;;55.60;47.40;;;;;;;14.47;100.00;99542.74;105010;1271;60521;-76
2022/05/06 07:19:34;;;;;;;59.40;49.00;;;;;;;14.35;100.00;99543.83;105042;1271;60547;-75
2022/05/06 07:22:01;;;;;;;60.80;49.80;;;;;;;14.22;100.00;99549.06;105097;1271;60530;-76
2022/05/06 07:24:27;;;;;;;65.80;53.90;;;;;;;14.16;100.00;99555.08;105003;1271;74252;-75
2022/05/06 07:26:55;;;;;;;70.10;55.20;;;;;;;14.14;100.00;99560.95;105080;1271;69403;-77
2022/05/06 07:29:21;;;;;;;72.00;56.00;;;;;;;14.10;100.00;99562.12;105042;1271;73489;-76
2022/05/06 07:31:48;;;;;;;69.90;56.00;;;;;;;14.14;100.00;99560.39;105057;1271;61142;-76
2022/05/06 07:34:15;;;;;;;74.00;59.00;;;;;;;14.20;100.00;99557.43;104727;1271;517210;-78
2022/05/06 07:36:43;;;;;;;78.40;59.60;;;;;;;14.27;100.00;99554.38;104897;1274;75749;-75
2022/05/06 07:39:14;;;;;;;73.10;57.10;;;;;;;14.35;100.00;99556.69;104874;1271;69409;-77
2022/05/06 07:41:43;;;;;;;75.30;58.80;;;;;;;14.43;100.00;99560.77;105162;1271;73286;-77
2022/05/06 07:44:09;;;;;;;76.00;59.80;;;;;;;14.50;100.00;99558.45;105143;1271;60523;-77
2022/05/06 07:46:36;;;;;;;71.10;57.50;;;;;;;14.56;100.00;99560.89;105092;1271;60821;-76
2022/05/06 07:49:06;;;;;;;78.10;58.40;;;;;;;14.59;100.00;99557.83;105090;1271;75393;-77
2022/05/06 07:51:33;;;;;;;69.00;54.50;;;;;;;14.63;100.00;99559.34;105111;1271;69354;-76
2022/05/06 07:54:00;;;;;;;68.30;55.30;;;;;;;14.61;100.00;99561.29;105095;1271;74106;-76
2022/05/06 07:56:29;;;;;;;68.70;56.20;;;;;;;14.63;100.00;99563.58;105070;1271;61203;-75
2022/05/06 07:58:56;;;;;;;65.10;52.50;;;;;;;14.71;100.00;99569.60;105114;1271;60902;-76
2022/05/06 08:04:32;;;;;;;60.70;50.60;;;;;;;14.78;100.00;99569.14;105141;1271;75739;-77
2022/05/06 08:06:55;;;;;;;62.20;51.60;;;;;;;14.95;100.00;99568.39;105074;1271;73412;-75
2022/05/06 08:09:22;;;;;;;59.30;49.20;;;;;;;15.02;100.00;99568.38;105100;1271;60379;-76
2022/05/06 08:11:49;;;;;;;58.80;49.10;;;;;;;15.00;100.00;99565.81;105113;1271;60565;-77
2022/05/06 08:14:17;;;;;;;61.30;49.60;;;;;;;14.97;100.00;99571.93;105134;1271;74349;-75
2022/05/06 08:16:45;;;;;;;62.30;48.30;;;;;;;14.99;100.00;99574.20;105139;1271;70239;-76
2022/05/06 08:19:12;;;;;;;60.00;49.00;;;;;;;15.01;100.00;99577.93;105098;1271;74756;-76
2022/05/06 08:21:39;;;;;;;60.90;50.80;;;;;;;15.07;100.00;99575.27;105093;1271;61346;-76
2022/05/06 08:24:08;;;;;;;59.90;49.20;;;;;;;15.15;100.00;99570.41;105151;1271;60893;-76
2022/05/06 08:26:35;;;;;;;62.30;49.50;;;;;;;15.25;100.00;99575.52;105106;1271;74417;-76
2022/05/06 08:29:03;;;;;;;62.70;51.40;;;;;;;15.44;100.00;99571.73;105137;1271;69894;-75
2022/05/06 08:31:37;;;;;;;59.00;49.30;;;;;;;15.63;100.00;99575.66;105069;1271;73418;-76
2022/05/06 08:34:07;;;;;;;60.00;50.30;;;;;;;15.72;100.00;99574.23;105079;1271;60507;-76
2022/05/06 08:36:34;;;;;;;;;;;;;;;15.80;100.00;99576.13;105169;1271;60751;-76
2022/05/06 08:39:03;;;;;;;61.50;49.70;;;;;;;15.89;100.00;99574.48;105130;1271;74234;-75
2022/05/06 08:41:30;;;;;;;53.80;47.10;;;;;;;16.09;100.00;99573.09;105141;1271;70490;-76
2022/05/06 08:50:50;;;;;;;55.30;47.60;;;;;;;16.24;100.00;99574.59;105105;1271;74622;-76
2022/05/06 08:52:33;;;;;;;53.70;46.00;;;;;;;16.87;100.00;99581.27;105086;1271;74607;-76
2022/05/06 08:55:05;;;;;;;51.70;45.20;;;;;;;17.02;100.00;99577.10;105163;1271;69186;-76
2022/05/06 08:57:32;;;;;;;49.60;43.70;;;;;;;17.11;100.00;99572.59;105115;1271;71279;-76
2022/05/06 08:59:58;;;;;;;50.50;44.60;;;;;;;17.17;100.00;99572.84;105008;1271;60478;-76
2022/05/06 09:02:25;;;;;;;49.30;43.40;;;;;;;17.24;100.00;99568.79;105059;1271;61740;-75
2022/05/06 09:04:51;;;;;;;49.50;42.90;;;;;;;17.30;100.00;99568.82;105119;1271;60586;-77
2022/05/06 09:07:21;;;;;;;50.20;43.60;;;;;;;17.35;100.00;99570.21;105133;1271;60484;-76
2022/05/06 09:10:09;;;;;;;48.50;43.30;;;;;;;17.41;100.00;99571.34;105137;1271;74774;-76
2022/05/06 09:12:42;;;;;;;48.40;43.30;;;;;;;17.42;100.00;99573.32;105119;1271;60604;-77
2022/05/06 09:17:56;;;;;;;46.90;41.90;;;;;;;17.40;100.00;99582.14;105084;1271;75452;-77
2022/05/06 09:20:25;;;;;;;49.00;42.60;;;;;;;17.35;100.00;99587.42;105137;1271;70581;-78
2022/05/06 09:22:53;;;;;;;52.30;44.80;;;;;;;17.25;100.00;99591.30;105161;1271;73230;-76
2022/05/06 09:25:40;;;;;;;47.90;41.10;;;;;;;17.08;100.00;99593.30;105099;1271;60673;-76
2022/05/06 09:28:20;;;;;;;47.50;42.40;;;;;;;16.84;100.00;99600.03;105119;1271;60742;-77
2022/05/06 09:31:04;;;;;;;45.50;40.60;;;;;;;16.68;100.00;99601.62;105109;1271;74481;-76
2022/05/06 09:33:36;;;;;;;47.50;42.10;;;;;;;16.66;100.00;99607.34;104941;1271;69438;-77
2022/05/06 09:36:29;;;;;;;42.10;37.50;;;;;;;16.72;100.00;99605.08;105097;1271;73234;-76
2022/05/06 09:39:07;;;;;;;45.70;38.90;;;;;;;16.75;100.00;99610.95;105132;1271;61246;-76
2022/05/06 09:41:38;;;;;;;43.50;38.40;;;;;;;16.71;100.00;99610.38;105146;1271;61805;-77
2022/05/06 09:44:07;;;;;;;41.60;36.80;;;;;;;16.76;100.00;99609.08;105122;1271;74574;-77
2022/05/06 09:46:34;;;;;;;42.80;37.70;;;;;;;16.83;100.00;99606.33;105137;1271;69223;-78
2022/05/06 09:49:03;;;;;;;41.60;36.60;;;;;;;16.91;100.00;99606.38;105173;1271;73670;-76
2022/05/06 09:51:35;;;;;;;43.30;37.80;;;;;;;17.02;100.00;99608.36;105135;1271;61100;-76
2022/05/06 09:54:05;;;;;;;40.90;36.50;;;;;;;17.17;100.00;99606.36;105151;1271;62053;-77
2022/05/06 09:56:33;;;;;;;39.30;35.10;;;;;;;17.37;100.00;99605.17;105079;1271;75665;-77
2022/05/06 09:58:59;;;;;;;40.80;36.20;;;;;;;17.52;100.00;99604.63;105093;1271;68807;-77
2022/05/06 10:01:26;;;;;;;42.30;36.80;;;;;;;17.67;100.00;99604.44;105125;1271;60482;-76
2022/05/06 10:03:53;;;;;;;42.00;36.10;;;;;;;17.84;100.00;99597.63;104876;1271;60594;-76
2022/05/06 10:06:24;;;;;;;41.60;36.10;;;;;;;17.94;100.00;99598.11;105110;1271;61846;-76
2022/05/06 10:08:55;;;;;;;42.20;37.90;;;;;;;18.02;100.00;99601.44;105192;1271;74223;-76
2022/05/06 10:11:24;;;;;;;40.50;36.30;;;;;;;18.16;100.00;99602.88;105106;1270;70966;-76
2022/05/06 10:13:53;;;;;;;39.20;34.80;;;;;;;18.24;100.00;99600.78;104976;1271;73861;-76
2022/05/06 10:16:33;;;;;;;39.30;35.20;;;;;;;18.23;100.00;99599.23;105140;1271;60615;-76
2022/05/06 10:19:00;;;;;;;40.20;36.00;;;;;;;18.10;100.00;99603.94;105143;1271;60775;-77
2022/05/06 10:21:47;;;;;;;40.00;35.70;;;;;;;18.08;100.00;99602.84;105107;1271;74606;-77
2022/05/06 10:24:15;;;;;;;38.80;34.90;;;;;;;18.14;100.00;99598.93;105127;1271;68744;-77
2022/05/06 10:26:43;;;;;;;38.70;34.90;;;;;;;18.19;100.00;99596.47;105151;1271;74579;-76
2022/05/06 10:32:55;;;;;;;39.40;35.40;;;;;;;18.34;100.00;99596.44;105094;1271;60767;-77
2022/05/06 10:35:51;;;;;;;38.80;34.90;;;;;;;18.62;100.00;99592.08;105083;1271;75523;-75
2022/05/06 10:38:24;;;;;;;39.10;34.80;;;;;;;18.93;100.00;99584.23;104459;1277;68867;-77
2022/05/06 10:41:02;;;;;;;37.10;33.30;;;;;;;19.22;100.00;99582.07;104470;1280;73443;-80
2022/05/06 10:43:41;;;;;;;35.90;32.30;;;;;;;19.45;100.00;99582.44;104509;1278;60554;-77
2022/05/06 10:46:08;;;;;;;38.20;34.20;;;;;;;19.49;100.00;99580.75;104514;1278;61098;-77
2022/05/06 10:48:35;;;;;;;37.80;33.90;;;;;;;19.54;100.00;99576.73;104558;1279;74423;-77
2022/05/06 10:51:21;;;;;;;35.70;31.90;;;;;;;19.49;100.00;99577.34;104618;1278;69169;-76
2022/05/06 10:53:47;;;;;;;35.80;32.10;;;;;;;19.44;100.00;99572.59;104481;1281;73264;-76
2022/05/06 10:56:17;;;;;;;36.90;33.10;;;;;;;19.44;100.00;99573.90;104539;1277;60922;-77
2022/05/06 10:58:44;;;;;;;36.60;32.80;;;;;;;19.46;100.00;99571.34;104402;1280;60935;-77
2022/05/06 11:01:17;;;;;;;35.80;32.00;;;;;;;19.45;100.00;99572.20;104380;1280;60424;-77
2022/05/06 11:03:54;;;;;;;38.30;34.20;;;;;;;19.40;100.00;99571.95;104448;1278;69866;-77
2022/05/06 11:06:22;;;;;;;37.60;33.60;;;;;;;19.36;100.00;99566.00;104517;1278;74654;-77
2022/05/06 11:08:48;;;;;;;40.70;35.50;;;;;;;19.29;100.00;99565.20;104368;1280;60574;-75
2022/05/06 11:11:17;;;;;;;40.70;36.30;;;;;;;19.23;100.00;99570.63;104499;1278;60531;-77
2022/05/06 11:13:53;;;;;;;36.20;32.40;;;;;;;19.21;100.00;99575.16;104329;1281;75559;-75
2022/05/06 11:16:20;;;;;;;38.60;34.40;;;;;;;19.03;100.00;99579.14;104814;1274;69631;-76
2022/05/06 11:18:48;;;;;;;38.90;34.00;;;;;;;18.92;100.00;99581.82;104875;1274;73317;-75
2022/05/06 11:21:28;;;;;;;38.70;34.60;;;;;;;18.80;100.00;99579.45;104790;1272;60549;-76
2022/05/06 11:23:54;;;;;;;;;;;;;;;18.73;100.00;99581.36;104931;1274;60780;-75
2022/05/06 11:26:30;;;;;;;39.70;35.10;;;;;;;18.64;100.00;99579.30;104805;1274;60579;-75
2022/05/06 11:29:04;;;;;;;38.70;34.60;;;;;;;18.60;100.00;99579.45;104939;1274;69390;-77
2022/05/06 11:31:32;;;;;;;39.50;35.20;;;;;;;18.55;100.00;99579.05;104929;1274;72204;-76
2022/05/06 11:34:06;;;;;;;40.00;34.10;;;;;;;18.52;100.00;99579.46;104888;1275;61067;-75
2022/05/06 11:36:33;;;;;;;42.00;34.60;;;;;;;18.43;100.00;99572.59;104939;1274;60551;-77
2022/05/06 11:39:10;;;;;;;37.90;33.00;;;;;;;18.32;100.00;99573.73;104946;1274;74395;-75
2022/05/06 11:41:36;;;;;;;40.10;35.40;;;;;;;18.29;100.00;99566.48;104964;1274;69648;-76
2022/05/06 11:44:05;;;;;;;40.70;36.50;;;;;;;18.32;100.00;99564.08;104847;1274;60494;-76
2022/05/06 11:49:25;;;;;;;40.10;35.80;;;;;;;18.49;100.00;99565.59;104941;1274;60868;-78